sensor_id;sensor_type;location;lat;lon;timestamp;P1;durP1;ratioP1;P2;durP2;ratioP2
58842;SDS011;44614;54.356;10.100;2023-03-19T00:01:56;38.42;;;20.63;;
58842;SDS011;44614;54.356;10.100;2023-03-19T00:04:22;41.70;;;18.75;;
58842;SDS011;44614;54.356;10.100;2023-03-19T00:09:14;52.78;;;20.45;;
58842;SDS011;44614;54.356;10.100;2023-03-19T00:11:40;47.92;;;18.75;;
58842;SDS011;44614;54.356;10.100;2023-03-19T00:14:05;44.78;;;18.13;;
58842;SDS011;44614;54.356;10.100;2023-03-19T00:16:31;34.13;;;18.85;;
58842;SDS011;44614;54.356;10.100;2023-03-19T00:18:56;37.15;;;17.98;;
58842;SDS011;44614;54.356;10.100;2023-03-19T00:21:22;42.70;;;20.23;;
58842;SDS011;44614;54.356;10.100;2023-03-19T00:23:47;40.45;;;18.02;;
58842;SDS011;44614;54.356;10.100;2023-03-19T00:26:12;38.72;;;18.77;;
58842;SDS011;44614;54.356;10.100;2023-03-19T00:28:38;42.20;;;19.95;;
58842;SDS011;44614;54.356;10.100;2023-03-19T00:31:11;48.10;;;20.40;;
58842;SDS011;44614;54.356;10.100;2023-03-19T00:33:38;36.95;;;19.15;;
58842;SDS011;44614;54.356;10.100;2023-03-19T00:36:04;35.72;;;18.20;;
58842;SDS011;44614;54.356;10.100;2023-03-19T00:38:31;41.30;;;18.10;;
58842;SDS011;44614;54.356;10.100;2023-03-19T00:40:56;39.73;;;21.17;;
58842;SDS011;44614;54.356;10.100;2023-03-19T00:43:22;43.95;;;20.60;;
58842;SDS011;44614;54.356;10.100;2023-03-19T00:45:48;42.97;;;18.73;;
58842;SDS011;44614;54.356;10.100;2023-03-19T00:48:13;37.13;;;18.53;;
58842;SDS011;44614;54.356;10.100;2023-03-19T00:50:38;41.53;;;19.85;;
58842;SDS011;44614;54.356;10.100;2023-03-19T00:53:04;28.55;;;15.40;;
58842;SDS011;44614;54.356;10.100;2023-03-19T00:55:29;37.45;;;18.10;;
58842;SDS011;44614;54.356;10.100;2023-03-19T00:57:55;33.03;;;17.45;;
58842;SDS011;44614;54.356;10.100;2023-03-19T01:00:21;40.55;;;18.55;;
58842;SDS011;44614;54.356;10.100;2023-03-19T01:02:46;38.55;;;17.45;;
58842;SDS011;44614;54.356;10.100;2023-03-19T01:05:11;41.42;;;17.63;;
58842;SDS011;44614;54.356;10.100;2023-03-19T01:07:40;31.42;;;17.58;;
58842;SDS011;44614;54.356;10.100;2023-03-19T01:10:05;37.58;;;18.25;;
58842;SDS011;44614;54.356;10.100;2023-03-19T01:12:32;34.47;;;17.33;;
58842;SDS011;44614;54.356;10.100;2023-03-19T01:14:58;35.80;;;16.70;;
58842;SDS011;44614;54.356;10.100;2023-03-19T01:17:23;36.55;;;16.52;;
58842;SDS011;44614;54.356;10.100;2023-03-19T01:19:48;39.27;;;17.93;;
58842;SDS011;44614;54.356;10.100;2023-03-19T01:22:14;41.17;;;15.90;;
58842;SDS011;44614;54.356;10.100;2023-03-19T01:24:40;41.55;;;18.88;;
58842;SDS011;44614;54.356;10.100;2023-03-19T01:27:06;35.70;;;16.52;;
58842;SDS011;44614;54.356;10.100;2023-03-19T01:29:32;38.10;;;17.48;;
58842;SDS011;44614;54.356;10.100;2023-03-19T01:31:57;38.55;;;16.05;;
58842;SDS011;44614;54.356;10.100;2023-03-19T01:34:22;26.23;;;13.53;;
58842;SDS011;44614;54.356;10.100;2023-03-19T01:36:48;27.58;;;15.02;;
58842;SDS011;44614;54.356;10.100;2023-03-19T01:39:13;34.58;;;16.70;;
58842;SDS011;44614;54.356;10.100;2023-03-19T01:41:38;34.03;;;16.53;;
58842;SDS011;44614;54.356;10.100;2023-03-19T01:44:21;33.05;;;14.48;;
58842;SDS011;44614;54.356;10.100;2023-03-19T01:46:54;39.90;;;18.85;;
58842;SDS011;44614;54.356;10.100;2023-03-19T01:49:21;28.05;;;14.07;;
58842;SDS011;44614;54.356;10.100;2023-03-19T01:51:50;27.70;;;14.57;;
58842;SDS011;44614;54.356;10.100;2023-03-19T01:54:20;30.63;;;16.48;;
58842;SDS011;44614;54.356;10.100;2023-03-19T01:56:49;34.25;;;16.02;;
58842;SDS011;44614;54.356;10.100;2023-03-19T01:59:24;39.47;;;17.42;;
58842;SDS011;44614;54.356;10.100;2023-03-19T02:02:00;31.70;;;16.98;;
58842;SDS011;44614;54.356;10.100;2023-03-19T02:04:29;26.30;;;14.95;;
58842;SDS011;44614;54.356;10.100;2023-03-19T02:06:55;29.58;;;16.40;;
58842;SDS011;44614;54.356;10.100;2023-03-19T02:09:23;37.78;;;17.00;;
58842;SDS011;44614;54.356;10.100;2023-03-19T02:11:51;38.85;;;17.88;;
58842;SDS011;44614;54.356;10.100;2023-03-19T02:14:17;29.33;;;15.63;;
58842;SDS011;44614;54.356;10.100;2023-03-19T02:16:42;31.50;;;15.75;;
58842;SDS011;44614;54.356;10.100;2023-03-19T02:19:09;23.48;;;14.32;;
58842;SDS011;44614;54.356;10.100;2023-03-19T02:21:40;40.70;;;16.35;;
58842;SDS011;44614;54.356;10.100;2023-03-19T02:24:13;38.33;;;17.17;;
58842;SDS011;44614;54.356;10.100;2023-03-19T02:26:44;26.45;;;14.52;;
58842;SDS011;44614;54.356;10.100;2023-03-19T02:29:11;34.97;;;15.25;;
58842;SDS011;44614;54.356;10.100;2023-03-19T02:31:37;37.75;;;17.88;;
58842;SDS011;44614;54.356;10.100;2023-03-19T02:34:14;29.02;;;15.65;;
58842;SDS011;44614;54.356;10.100;2023-03-19T02:36:50;28.58;;;16.95;;
58842;SDS011;44614;54.356;10.100;2023-03-19T02:39:21;32.00;;;17.15;;
58842;SDS011;44614;54.356;10.100;2023-03-19T02:41:53;28.35;;;14.02;;
58842;SDS011;44614;54.356;10.100;2023-03-19T02:46:45;30.73;;;13.40;;
58842;SDS011;44614;54.356;10.100;2023-03-19T02:49:11;28.48;;;15.57;;
58842;SDS011;44614;54.356;10.100;2023-03-19T02:51:36;23.83;;;15.98;;
58842;SDS011;44614;54.356;10.100;2023-03-19T02:54:02;30.40;;;14.95;;
58842;SDS011;44614;54.356;10.100;2023-03-19T02:56:27;25.17;;;12.77;;
58842;SDS011;44614;54.356;10.100;2023-03-19T02:58:53;25.40;;;13.57;;
58842;SDS011;44614;54.356;10.100;2023-03-19T03:01:18;28.42;;;14.82;;
58842;SDS011;44614;54.356;10.100;2023-03-19T03:03:44;29.02;;;15.25;;
58842;SDS011;44614;54.356;10.100;2023-03-19T03:06:10;29.77;;;14.52;;
58842;SDS011;44614;54.356;10.100;2023-03-19T03:08:36;31.02;;;15.23;;
58842;SDS011;44614;54.356;10.100;2023-03-19T03:11:01;23.42;;;13.45;;
58842;SDS011;44614;54.356;10.100;2023-03-19T03:13:27;32.50;;;14.40;;
58842;SDS011;44614;54.356;10.100;2023-03-19T03:15:53;27.75;;;14.02;;
58842;SDS011;44614;54.356;10.100;2023-03-19T03:18:18;31.20;;;16.33;;
58842;SDS011;44614;54.356;10.100;2023-03-19T03:20:43;32.42;;;15.38;;
58842;SDS011;44614;54.356;10.100;2023-03-19T03:23:09;23.35;;;12.73;;
58842;SDS011;44614;54.356;10.100;2023-03-19T03:25:35;26.80;;;14.70;;
58842;SDS011;44614;54.356;10.100;2023-03-19T03:28:01;27.67;;;14.15;;
58842;SDS011;44614;54.356;10.100;2023-03-19T03:30:27;30.65;;;15.80;;
58842;SDS011;44614;54.356;10.100;2023-03-19T03:32:52;28.35;;;14.02;;
58842;SDS011;44614;54.356;10.100;2023-03-19T03:35:17;35.80;;;16.25;;
58842;SDS011;44614;54.356;10.100;2023-03-19T03:37:47;34.22;;;16.27;;
58842;SDS011;44614;54.356;10.100;2023-03-19T03:40:15;22.92;;;13.38;;
58842;SDS011;44614;54.356;10.100;2023-03-19T03:42:42;31.92;;;15.88;;
58842;SDS011;44614;54.356;10.100;2023-03-19T03:45:08;36.42;;;16.77;;
58842;SDS011;44614;54.356;10.100;2023-03-19T03:47:35;28.63;;;15.48;;
58842;SDS011;44614;54.356;10.100;2023-03-19T03:50:01;26.27;;;13.97;;
58842;SDS011;44614;54.356;10.100;2023-03-19T03:52:29;24.75;;;12.68;;
58842;SDS011;44614;54.356;10.100;2023-03-19T03:54:56;32.17;;;14.93;;
58842;SDS011;44614;54.356;10.100;2023-03-19T03:59:47;35.83;;;17.25;;
58842;SDS011;44614;54.356;10.100;2023-03-19T04:02:13;31.07;;;14.73;;
58842;SDS011;44614;54.356;10.100;2023-03-19T04:04:38;35.40;;;16.53;;
58842;SDS011;44614;54.356;10.100;2023-03-19T04:07:03;39.30;;;17.02;;
58842;SDS011;44614;54.356;10.100;2023-03-19T04:09:29;33.55;;;16.30;;
58842;SDS011;44614;54.356;10.100;2023-03-19T04:11:55;27.02;;;15.90;;
58842;SDS011;44614;54.356;10.100;2023-03-19T04:14:20;28.42;;;14.57;;
58842;SDS011;44614;54.356;10.100;2023-03-19T04:16:45;37.57;;;16.47;;
58842;SDS011;44614;54.356;10.100;2023-03-19T04:19:11;33.10;;;16.63;;
58842;SDS011;44614;54.356;10.100;2023-03-19T04:21:36;29.40;;;16.05;;
58842;SDS011;44614;54.356;10.100;2023-03-19T04:24:01;30.02;;;15.52;;
58842;SDS011;44614;54.356;10.100;2023-03-19T04:26:26;36.80;;;17.73;;
58842;SDS011;44614;54.356;10.100;2023-03-19T04:28:52;28.35;;;16.73;;
58842;SDS011;44614;54.356;10.100;2023-03-19T04:31:17;24.73;;;16.30;;
58842;SDS011;44614;54.356;10.100;2023-03-19T04:33:42;29.03;;;16.50;;
58842;SDS011;44614;54.356;10.100;2023-03-19T04:36:08;33.47;;;16.25;;
58842;SDS011;44614;54.356;10.100;2023-03-19T04:38:34;28.67;;;14.50;;
58842;SDS011;44614;54.356;10.100;2023-03-19T04:40:59;28.45;;;16.02;;
58842;SDS011;44614;54.356;10.100;2023-03-19T04:43:25;28.10;;;13.53;;
58842;SDS011;44614;54.356;10.100;2023-03-19T04:45:51;26.15;;;14.82;;
58842;SDS011;44614;54.356;10.100;2023-03-19T04:48:16;28.98;;;13.98;;
58842;SDS011;44614;54.356;10.100;2023-03-19T04:50:42;28.75;;;13.57;;
58842;SDS011;44614;54.356;10.100;2023-03-19T04:53:09;24.83;;;13.43;;
58842;SDS011;44614;54.356;10.100;2023-03-19T04:55:35;28.75;;;14.77;;
58842;SDS011;44614;54.356;10.100;2023-03-19T04:58:01;25.63;;;12.45;;
58842;SDS011;44614;54.356;10.100;2023-03-19T05:00:26;33.85;;;14.20;;
58842;SDS011;44614;54.356;10.100;2023-03-19T05:02:52;26.08;;;15.02;;
58842;SDS011;44614;54.356;10.100;2023-03-19T05:05:17;29.42;;;13.98;;
58842;SDS011;44614;54.356;10.100;2023-03-19T05:07:42;24.63;;;14.55;;
58842;SDS011;44614;54.356;10.100;2023-03-19T05:10:08;21.52;;;12.35;;
58842;SDS011;44614;54.356;10.100;2023-03-19T05:12:34;21.92;;;11.98;;
58842;SDS011;44614;54.356;10.100;2023-03-19T05:14:59;26.85;;;13.18;;
58842;SDS011;44614;54.356;10.100;2023-03-19T05:17:25;30.45;;;14.68;;
58842;SDS011;44614;54.356;10.100;2023-03-19T05:19:51;28.45;;;13.82;;
58842;SDS011;44614;54.356;10.100;2023-03-19T05:22:17;24.23;;;14.48;;
58842;SDS011;44614;54.356;10.100;2023-03-19T05:24:42;22.90;;;11.70;;
58842;SDS011;44614;54.356;10.100;2023-03-19T05:27:08;22.60;;;13.13;;
58842;SDS011;44614;54.356;10.100;2023-03-19T05:29:33;22.80;;;12.73;;
58842;SDS011;44614;54.356;10.100;2023-03-19T05:31:58;26.58;;;13.15;;
58842;SDS011;44614;54.356;10.100;2023-03-19T05:34:26;25.58;;;15.38;;
58842;SDS011;44614;54.356;10.100;2023-03-19T05:36:52;31.52;;;13.48;;
58842;SDS011;44614;54.356;10.100;2023-03-19T05:39:17;31.63;;;13.57;;
58842;SDS011;44614;54.356;10.100;2023-03-19T05:41:43;25.92;;;11.98;;
58842;SDS011;44614;54.356;10.100;2023-03-19T05:44:09;25.77;;;11.68;;
58842;SDS011;44614;54.356;10.100;2023-03-19T05:46:34;27.55;;;14.55;;
58842;SDS011;44614;54.356;10.100;2023-03-19T05:49:00;27.33;;;13.05;;
58842;SDS011;44614;54.356;10.100;2023-03-19T05:51:25;20.83;;;11.82;;
58842;SDS011;44614;54.356;10.100;2023-03-19T05:53:51;21.58;;;11.20;;
58842;SDS011;44614;54.356;10.100;2023-03-19T05:56:16;24.98;;;13.15;;
58842;SDS011;44614;54.356;10.100;2023-03-19T05:58:41;22.85;;;10.95;;
58842;SDS011;44614;54.356;10.100;2023-03-19T06:01:07;19.35;;;10.82;;
58842;SDS011;44614;54.356;10.100;2023-03-19T06:03:32;19.40;;;10.32;;
58842;SDS011;44614;54.356;10.100;2023-03-19T06:05:58;19.00;;;12.38;;
58842;SDS011;44614;54.356;10.100;2023-03-19T06:08:23;21.30;;;9.40;;
58842;SDS011;44614;54.356;10.100;2023-03-19T06:10:48;20.60;;;11.77;;
58842;SDS011;44614;54.356;10.100;2023-03-19T06:13:14;21.17;;;9.68;;
58842;SDS011;44614;54.356;10.100;2023-03-19T06:15:39;17.60;;;9.45;;
58842;SDS011;44614;54.356;10.100;2023-03-19T06:18:05;19.80;;;10.73;;
58842;SDS011;44614;54.356;10.100;2023-03-19T06:20:30;25.60;;;12.60;;
58842;SDS011;44614;54.356;10.100;2023-03-19T06:22:55;16.88;;;8.07;;
58842;SDS011;44614;54.356;10.100;2023-03-19T06:25:21;22.08;;;9.48;;
58842;SDS011;44614;54.356;10.100;2023-03-19T06:27:46;16.30;;;7.82;;
58842;SDS011;44614;54.356;10.100;2023-03-19T06:30:12;14.95;;;8.45;;
58842;SDS011;44614;54.356;10.100;2023-03-19T06:32:37;16.73;;;8.70;;
58842;SDS011;44614;54.356;10.100;2023-03-19T06:35:03;15.18;;;7.80;;
58842;SDS011;44614;54.356;10.100;2023-03-19T06:37:29;20.65;;;9.85;;
58842;SDS011;44614;54.356;10.100;2023-03-19T06:39:54;18.40;;;8.88;;
58842;SDS011;44614;54.356;10.100;2023-03-19T06:42:20;12.02;;;7.47;;
58842;SDS011;44614;54.356;10.100;2023-03-19T06:44:46;19.60;;;9.65;;
58842;SDS011;44614;54.356;10.100;2023-03-19T06:47:12;15.88;;;8.85;;
58842;SDS011;44614;54.356;10.100;2023-03-19T06:49:38;23.27;;;10.17;;
58842;SDS011;44614;54.356;10.100;2023-03-19T06:52:04;17.92;;;9.07;;
58842;SDS011;44614;54.356;10.100;2023-03-19T06:54:30;20.13;;;8.82;;
58842;SDS011;44614;54.356;10.100;2023-03-19T06:56:55;16.33;;;9.52;;
58842;SDS011;44614;54.356;10.100;2023-03-19T06:59:21;15.10;;;8.25;;
58842;SDS011;44614;54.356;10.100;2023-03-19T07:01:46;20.85;;;9.20;;
58842;SDS011;44614;54.356;10.100;2023-03-19T07:04:12;16.63;;;8.00;;
58842;SDS011;44614;54.356;10.100;2023-03-19T07:06:37;15.93;;;8.90;;
58842;SDS011;44614;54.356;10.100;2023-03-19T07:09:03;13.30;;;7.40;;
58842;SDS011;44614;54.356;10.100;2023-03-19T07:11:29;13.10;;;8.25;;
58842;SDS011;44614;54.356;10.100;2023-03-19T07:13:54;17.85;;;7.35;;
58842;SDS011;44614;54.356;10.100;2023-03-19T07:16:19;15.65;;;6.95;;
58842;SDS011;44614;54.356;10.100;2023-03-19T07:18:45;12.95;;;7.68;;
58842;SDS011;44614;54.356;10.100;2023-03-19T07:21:10;19.17;;;7.65;;
58842;SDS011;44614;54.356;10.100;2023-03-19T07:23:36;15.10;;;5.65;;
58842;SDS011;44614;54.356;10.100;2023-03-19T07:26:01;14.00;;;5.88;;
58842;SDS011;44614;54.356;10.100;2023-03-19T07:28:27;13.77;;;7.27;;
58842;SDS011;44614;54.356;10.100;2023-03-19T07:30:53;14.50;;;7.05;;
58842;SDS011;44614;54.356;10.100;2023-03-19T07:33:19;12.38;;;6.13;;
58842;SDS011;44614;54.356;10.100;2023-03-19T07:35:45;9.23;;;5.00;;
58842;SDS011;44614;54.356;10.100;2023-03-19T07:38:10;13.93;;;7.65;;
58842;SDS011;44614;54.356;10.100;2023-03-19T07:40:36;11.82;;;6.03;;
58842;SDS011;44614;54.356;10.100;2023-03-19T07:43:01;11.65;;;5.50;;
58842;SDS011;44614;54.356;10.100;2023-03-19T07:45:27;12.90;;;4.95;;
58842;SDS011;44614;54.356;10.100;2023-03-19T07:47:53;10.25;;;5.20;;
58842;SDS011;44614;54.356;10.100;2023-03-19T07:50:18;10.88;;;6.35;;
58842;SDS011;44614;54.356;10.100;2023-03-19T07:52:44;11.88;;;5.80;;
58842;SDS011;44614;54.356;10.100;2023-03-19T07:55:11;13.25;;;5.13;;
58842;SDS011;44614;54.356;10.100;2023-03-19T07:57:37;9.75;;;5.43;;
58842;SDS011;44614;54.356;10.100;2023-03-19T08:00:03;9.30;;;5.93;;
58842;SDS011;44614;54.356;10.100;2023-03-19T08:02:28;10.67;;;5.40;;
58842;SDS011;44614;54.356;10.100;2023-03-19T08:04:54;9.30;;;4.53;;
58842;SDS011;44614;54.356;10.100;2023-03-19T08:07:20;12.68;;;5.22;;
58842;SDS011;44614;54.356;10.100;2023-03-19T08:09:46;10.07;;;5.00;;
58842;SDS011;44614;54.356;10.100;2023-03-19T08:12:11;15.43;;;6.20;;
58842;SDS011;44614;54.356;10.100;2023-03-19T08:14:37;10.98;;;5.43;;
58842;SDS011;44614;54.356;10.100;2023-03-19T08:17:02;8.70;;;4.97;;
58842;SDS011;44614;54.356;10.100;2023-03-19T08:19:28;8.15;;;4.95;;
58842;SDS011;44614;54.356;10.100;2023-03-19T08:21:53;8.95;;;4.20;;
58842;SDS011;44614;54.356;10.100;2023-03-19T08:24:18;8.90;;;3.75;;
58842;SDS011;44614;54.356;10.100;2023-03-19T08:26:44;9.30;;;4.90;;
58842;SDS011;44614;54.356;10.100;2023-03-19T08:29:10;10.83;;;5.10;;
58842;SDS011;44614;54.356;10.100;2023-03-19T08:31:35;7.33;;;3.90;;
58842;SDS011;44614;54.356;10.100;2023-03-19T08:34:01;7.93;;;3.80;;
58842;SDS011;44614;54.356;10.100;2023-03-19T08:36:29;5.75;;;3.40;;
58842;SDS011;44614;54.356;10.100;2023-03-19T08:38:56;11.20;;;5.00;;
58842;SDS011;44614;54.356;10.100;2023-03-19T08:43:48;12.35;;;5.10;;
58842;SDS011;44614;54.356;10.100;2023-03-19T08:46:13;12.63;;;4.65;;
58842;SDS011;44614;54.356;10.100;2023-03-19T08:48:40;7.25;;;4.38;;
58842;SDS011;44614;54.356;10.100;2023-03-19T08:51:06;10.93;;;3.97;;
58842;SDS011;44614;54.356;10.100;2023-03-19T08:53:32;7.43;;;4.72;;
58842;SDS011;44614;54.356;10.100;2023-03-19T08:55:59;8.20;;;4.22;;
58842;SDS011;44614;54.356;10.100;2023-03-19T08:58:26;9.73;;;5.05;;
58842;SDS011;44614;54.356;10.100;2023-03-19T09:00:52;9.43;;;4.28;;
58842;SDS011;44614;54.356;10.100;2023-03-19T09:03:19;11.87;;;5.23;;
58842;SDS011;44614;54.356;10.100;2023-03-19T09:08:11;7.65;;;4.05;;
58842;SDS011;44614;54.356;10.100;2023-03-19T09:10:37;12.00;;;4.20;;
58842;SDS011;44614;54.356;10.100;2023-03-19T09:13:03;6.70;;;3.97;;
58842;SDS011;44614;54.356;10.100;2023-03-19T09:15:28;9.30;;;4.88;;
58842;SDS011;44614;54.356;10.100;2023-03-19T09:17:53;8.87;;;4.60;;
58842;SDS011;44614;54.356;10.100;2023-03-19T09:20:19;11.10;;;4.73;;
58842;SDS011;44614;54.356;10.100;2023-03-19T09:22:45;7.57;;;4.30;;
58842;SDS011;44614;54.356;10.100;2023-03-19T09:25:10;8.70;;;5.07;;
58842;SDS011;44614;54.356;10.100;2023-03-19T09:27:36;7.43;;;3.90;;
58842;SDS011;44614;54.356;10.100;2023-03-19T09:30:02;8.83;;;4.73;;
58842;SDS011;44614;54.356;10.100;2023-03-19T09:32:28;7.15;;;4.22;;
58842;SDS011;44614;54.356;10.100;2023-03-19T09:34:54;7.90;;;5.83;;
58842;SDS011;44614;54.356;10.100;2023-03-19T09:37:19;8.37;;;4.30;;
58842;SDS011;44614;54.356;10.100;2023-03-19T09:39:44;14.20;;;5.28;;
58842;SDS011;44614;54.356;10.100;2023-03-19T09:45:11;9.10;;;4.67;;
58842;SDS011;44614;54.356;10.100;2023-03-19T09:47:38;9.75;;;4.82;;
58842;SDS011;44614;54.356;10.100;2023-03-19T09:50:11;9.33;;;4.70;;
58842;SDS011;44614;54.356;10.100;2023-03-19T09:52:41;10.20;;;4.43;;
58842;SDS011;44614;54.356;10.100;2023-03-19T09:57:39;10.27;;;4.93;;
58842;SDS011;44614;54.356;10.100;2023-03-19T10:00:10;6.70;;;3.73;;
58842;SDS011;44614;54.356;10.100;2023-03-19T10:02:43;12.32;;;5.60;;
58842;SDS011;44614;54.356;10.100;2023-03-19T10:05:22;11.73;;;5.20;;
58842;SDS011;44614;54.356;10.100;2023-03-19T10:08:08;10.82;;;4.78;;
58842;SDS011;44614;54.356;10.100;2023-03-19T10:14:11;10.30;;;4.22;;
58842;SDS011;44614;54.356;10.100;2023-03-19T10:16:18;9.63;;;4.50;;
58842;SDS011;44614;54.356;10.100;2023-03-19T10:18:47;11.25;;;5.30;;
58842;SDS011;44614;54.356;10.100;2023-03-19T10:21:18;13.40;;;5.38;;
58842;SDS011;44614;54.356;10.100;2023-03-19T10:26:32;9.73;;;4.57;;
58842;SDS011;44614;54.356;10.100;2023-03-19T10:29:08;9.75;;;4.30;;
58842;SDS011;44614;54.356;10.100;2023-03-19T10:31:52;7.65;;;3.97;;
58842;SDS011;44614;54.356;10.100;2023-03-19T10:37:00;9.68;;;4.43;;
58842;SDS011;44614;54.356;10.100;2023-03-19T10:39:47;7.18;;;3.15;;
58842;SDS011;44614;54.356;10.100;2023-03-19T10:47:58;5.93;;;3.35;;
58842;SDS011;44614;54.356;10.100;2023-03-19T10:50:33;7.43;;;2.58;;
58842;SDS011;44614;54.356;10.100;2023-03-19T10:53:06;6.40;;;2.53;;
58842;SDS011;44614;54.356;10.100;2023-03-19T10:55:56;7.93;;;3.03;;
58842;SDS011;44614;54.356;10.100;2023-03-19T10:58:26;5.30;;;2.33;;
58842;SDS011;44614;54.356;10.100;2023-03-19T11:01:08;4.82;;;2.40;;
58842;SDS011;44614;54.356;10.100;2023-03-19T11:06:32;8.80;;;3.13;;
58842;SDS011;44614;54.356;10.100;2023-03-19T11:11:52;13.43;;;4.63;;
58842;SDS011;44614;54.356;10.100;2023-03-19T11:14:40;7.03;;;3.20;;
58842;SDS011;44614;54.356;10.100;2023-03-19T11:17:22;7.43;;;3.30;;
58842;SDS011;44614;54.356;10.100;2023-03-19T11:22:27;9.70;;;3.40;;
58842;SDS011;44614;54.356;10.100;2023-03-19T11:24:59;9.95;;;3.17;;
58842;SDS011;44614;54.356;10.100;2023-03-19T11:27:43;8.07;;;3.85;;
58842;SDS011;44614;54.356;10.100;2023-03-19T11:30:13;8.35;;;3.65;;
58842;SDS011;44614;54.356;10.100;2023-03-19T11:37:53;7.32;;;3.20;;
58842;SDS011;44614;54.356;10.100;2023-03-19T11:40:30;7.90;;;3.45;;
58842;SDS011;44614;54.356;10.100;2023-03-19T11:54:48;4.35;;;3.08;;
58842;SDS011;44614;54.356;10.100;2023-03-19T11:57:08;6.18;;;2.97;;
58842;SDS011;44614;54.356;10.100;2023-03-19T12:11:00;5.43;;;3.00;;
58842;SDS011;44614;54.356;10.100;2023-03-19T12:18:57;5.65;;;2.28;;
58842;SDS011;44614;54.356;10.100;2023-03-19T12:30:11;5.43;;;3.40;;
58842;SDS011;44614;54.356;10.100;2023-03-19T12:32:51;7.07;;;3.20;;
58842;SDS011;44614;54.356;10.100;2023-03-19T12:35:38;5.80;;;2.67;;
58842;SDS011;44614;54.356;10.100;2023-03-19T12:40:35;5.23;;;2.50;;
58842;SDS011;44614;54.356;10.100;2023-03-19T12:43:09;5.13;;;2.60;;
58842;SDS011;44614;54.356;10.100;2023-03-19T12:45:46;4.82;;;2.88;;
58842;SDS011;44614;54.356;10.100;2023-03-19T12:48:26;6.25;;;3.33;;
58842;SDS011;44614;54.356;10.100;2023-03-19T12:50:55;5.97;;;3.40;;
58842;SDS011;44614;54.356;10.100;2023-03-19T12:56:16;7.05;;;3.58;;
58842;SDS011;44614;54.356;10.100;2023-03-19T13:01:38;6.30;;;3.30;;
58842;SDS011;44614;54.356;10.100;2023-03-19T13:04:19;8.98;;;3.80;;
58842;SDS011;44614;54.356;10.100;2023-03-19T13:12:23;7.43;;;3.45;;
58842;SDS011;44614;54.356;10.100;2023-03-19T13:17:30;7.60;;;4.30;;
58842;SDS011;44614;54.356;10.100;2023-03-19T13:19:59;7.57;;;3.60;;
58842;SDS011;44614;54.356;10.100;2023-03-19T13:22:50;7.53;;;3.15;;
58842;SDS011;44614;54.356;10.100;2023-03-19T13:25:21;8.50;;;4.13;;
58842;SDS011;44614;54.356;10.100;2023-03-19T13:27:54;7.72;;;2.72;;
58842;SDS011;44614;54.356;10.100;2023-03-19T13:30:20;8.05;;;4.20;;
58842;SDS011;44614;54.356;10.100;2023-03-19T13:33:01;7.55;;;4.22;;
58842;SDS011;44614;54.356;10.100;2023-03-19T13:40:59;7.85;;;3.35;;
58842;SDS011;44614;54.356;10.100;2023-03-19T13:46:08;8.40;;;4.07;;
58842;SDS011;44614;54.356;10.100;2023-03-19T13:49:06;7.40;;;4.10;;
58842;SDS011;44614;54.356;10.100;2023-03-19T13:51:55;7.25;;;3.70;;
58842;SDS011;44614;54.356;10.100;2023-03-19T13:57:40;8.77;;;3.65;;
58842;SDS011;44614;54.356;10.100;2023-03-19T14:01:11;9.15;;;3.15;;
58842;SDS011;44614;54.356;10.100;2023-03-19T14:05:49;7.20;;;3.65;;
58842;SDS011;44614;54.356;10.100;2023-03-19T14:08:21;9.70;;;4.18;;
58842;SDS011;44614;54.356;10.100;2023-03-19T14:10:50;7.60;;;3.97;;
58842;SDS011;44614;54.356;10.100;2023-03-19T14:14:00;6.93;;;3.83;;
58842;SDS011;44614;54.356;10.100;2023-03-19T14:16:15;9.77;;;3.63;;
58842;SDS011;44614;54.356;10.100;2023-03-19T14:18:55;8.25;;;4.00;;
58842;SDS011;44614;54.356;10.100;2023-03-19T14:21:38;8.38;;;4.45;;
58842;SDS011;44614;54.356;10.100;2023-03-19T14:26:57;9.57;;;4.85;;
58842;SDS011;44614;54.356;10.100;2023-03-19T14:29:27;7.85;;;4.10;;
58842;SDS011;44614;54.356;10.100;2023-03-19T14:34:25;9.73;;;4.30;;
58842;SDS011;44614;54.356;10.100;2023-03-19T14:37:01;13.18;;;5.28;;
58842;SDS011;44614;54.356;10.100;2023-03-19T14:39:48;11.02;;;5.45;;
58842;SDS011;44614;54.356;10.100;2023-03-19T14:42:22;10.10;;;5.15;;
58842;SDS011;44614;54.356;10.100;2023-03-19T14:50:49;10.23;;;5.22;;
58842;SDS011;44614;54.356;10.100;2023-03-19T14:53:53;10.25;;;5.03;;
58842;SDS011;44614;54.356;10.100;2023-03-19T14:56:41;13.35;;;5.50;;
58842;SDS011;44614;54.356;10.100;2023-03-19T14:59:20;10.85;;;5.00;;
58842;SDS011;44614;54.356;10.100;2023-03-19T15:01:51;13.73;;;5.47;;
58842;SDS011;44614;54.356;10.100;2023-03-19T15:04:22;11.15;;;6.22;;
58842;SDS011;44614;54.356;10.100;2023-03-19T15:06:55;11.15;;;5.35;;
58842;SDS011;44614;54.356;10.100;2023-03-19T15:17:20;10.10;;;5.10;;
58842;SDS011;44614;54.356;10.100;2023-03-19T15:19:48;12.75;;;5.88;;
58842;SDS011;44614;54.356;10.100;2023-03-19T15:22:19;14.23;;;7.47;;
58842;SDS011;44614;54.356;10.100;2023-03-19T15:24:45;15.70;;;7.90;;
58842;SDS011;44614;54.356;10.100;2023-03-19T15:27:19;18.33;;;7.38;;
58842;SDS011;44614;54.356;10.100;2023-03-19T15:29:46;12.88;;;6.82;;
58842;SDS011;44614;54.356;10.100;2023-03-19T15:32:12;14.30;;;7.93;;
58842;SDS011;44614;54.356;10.100;2023-03-19T15:34:37;13.80;;;7.10;;
58842;SDS011;44614;54.356;10.100;2023-03-19T15:37:04;13.83;;;8.67;;
58842;SDS011;44614;54.356;10.100;2023-03-19T15:39:34;11.45;;;6.85;;
58842;SDS011;44614;54.356;10.100;2023-03-19T15:42:04;10.88;;;6.43;;
58842;SDS011;44614;54.356;10.100;2023-03-19T15:44:38;13.87;;;7.97;;
58842;SDS011;44614;54.356;10.100;2023-03-19T15:47:10;14.40;;;8.30;;
58842;SDS011;44614;54.356;10.100;2023-03-19T15:49:42;13.23;;;7.93;;
58842;SDS011;44614;54.356;10.100;2023-03-19T15:52:15;16.33;;;7.75;;
58842;SDS011;44614;54.356;10.100;2023-03-19T15:54:43;15.13;;;8.70;;
58842;SDS011;44614;54.356;10.100;2023-03-19T15:57:10;14.77;;;8.47;;
58842;SDS011;44614;54.356;10.100;2023-03-19T15:59:38;15.07;;;8.73;;
58842;SDS011;44614;54.356;10.100;2023-03-19T16:02:10;15.30;;;8.13;;
58842;SDS011;44614;54.356;10.100;2023-03-19T16:04:46;15.45;;;8.38;;
58842;SDS011;44614;54.356;10.100;2023-03-19T16:07:56;17.27;;;9.43;;
58842;SDS011;44614;54.356;10.100;2023-03-19T16:12:54;16.98;;;8.02;;
58842;SDS011;44614;54.356;10.100;2023-03-19T16:17:46;14.20;;;7.07;;
58842;SDS011;44614;54.356;10.100;2023-03-19T16:20:13;13.27;;;7.40;;
58842;SDS011;44614;54.356;10.100;2023-03-19T16:22:39;17.52;;;8.20;;
58842;SDS011;44614;54.356;10.100;2023-03-19T16:25:13;19.10;;;7.30;;
58842;SDS011;44614;54.356;10.100;2023-03-19T16:27:45;13.02;;;6.50;;
58842;SDS011;44614;54.356;10.100;2023-03-19T16:30:15;15.07;;;6.93;;
58842;SDS011;44614;54.356;10.100;2023-03-19T16:33:03;17.25;;;8.15;;
58842;SDS011;44614;54.356;10.100;2023-03-19T16:35:31;15.18;;;6.88;;
58842;SDS011;44614;54.356;10.100;2023-03-19T16:38:13;14.75;;;6.95;;
58842;SDS011;44614;54.356;10.100;2023-03-19T16:45:44;13.80;;;7.63;;
58842;SDS011;44614;54.356;10.100;2023-03-19T16:48:14;16.23;;;7.07;;
58842;SDS011;44614;54.356;10.100;2023-03-19T16:50:40;14.13;;;7.60;;